Time;durP1;ratioP1;P1;durP2;ratioP2;P2;SDS_P1;SDS_P2;PMS_P1;PMS_P2;Temp;Humidity;BMP_temperature;BMP_pressure;BME280_temperature;BME280_humidity;BME280_pressure;Samples;Min_cycle;Max_cycle;Signal;HPM_P1;HPM_P2
2021/08/30 00:00:01;;;;;;;2.75;1.38;;;13.20;94.00;;;;;;5075991;28;20063;-75
2021/08/30 00:02:27;;;;;;;2.70;1.30;;;13.20;93.90;;;;;;5075956;28;20028;-75
2021/08/30 00:04:52;;;;;;;2.08;1.33;;;13.20;94.10;;;;;;5076266;28;20444;-76
2021/08/30 00:07:18;;;;;;;1.95;1.40;;;13.20;94.20;;;;;;5076225;28;20028;-76
2021/08/30 00:09:45;;;;;;;1.77;1.20;;;13.10;94.40;;;;;;5076292;28;20111;-75
2021/08/30 00:12:10;;;;;;;2.03;1.30;;;13.10;94.40;;;;;;5075594;28;20036;-75
2021/08/30 00:14:37;;;;;;;3.33;1.40;;;13.10;94.60;;;;;;5075357;28;20070;-76
2021/08/30 00:17:03;;;;;;;1.38;1.27;;;13.10;94.50;;;;;;5075641;28;20024;-76
2021/08/30 00:19:32;;;;;;;1.95;1.13;;;13.20;94.60;;;;;;5075523;28;20036;-76
2021/08/30 00:21:58;;;;;;;2.95;1.20;;;13.20;94.30;;;;;;5075563;28;20021;-77
2021/08/30 00:24:24;;;;;;;1.48;1.30;;;13.10;94.60;;;;;;5075420;28;20416;-77
2021/08/30 00:26:51;;;;;;;1.30;1.20;;;13.10;95.00;;;;;;5075263;28;20384;-77
2021/08/30 00:29:17;;;;;;;1.77;1.30;;;13.10;95.20;;;;;;5075495;28;20020;-77
2021/08/30 00:31:43;;;;;;;3.25;1.35;;;13.00;94.90;;;;;;5075200;28;20037;-76
2021/08/30 00:34:08;;;;;;;1.75;1.25;;;13.10;95.00;;;;;;5075254;28;20349;-76
2021/08/30 00:36:34;;;;;;;4.38;1.30;;;13.10;95.10;;;;;;5075126;28;20060;-76
2021/08/30 00:39:00;;;;;;;1.77;1.40;;;13.00;94.80;;;;;;5075217;28;20028;-76
2021/08/30 00:41:26;;;;;;;2.00;1.33;;;13.10;95.20;;;;;;5075126;28;20020;-76
2021/08/30 00:43:53;;;;;;;2.13;1.25;;;13.10;95.00;;;;;;5074646;28;20028;-76
2021/08/30 00:46:19;;;;;;;2.95;1.48;;;13.10;95.10;;;;;;5075111;28;20047;-77
2021/08/30 00:48:46;;;;;;;1.30;1.20;;;13.20;95.00;;;;;;5075029;28;20078;-75
2021/08/30 00:51:17;;;;;;;2.15;1.30;;;13.20;94.90;;;;;;5074620;28;20053;-76
2021/08/30 00:53:45;;;;;;;1.75;1.10;;;13.20;95.70;;;;;;5074803;28;20034;-76
2021/08/30 00:56:11;;;;;;;1.67;1.30;;;13.20;94.80;;;;;;5074820;28;20072;-77
2021/08/30 00:58:39;;;;;;;2.33;1.55;;;13.30;94.80;;;;;;5074860;28;20027;-76
2021/08/30 01:01:05;;;;;;;2.30;0.85;;;13.30;94.40;;;;;;5074787;28;20020;-76
2021/08/30 01:03:30;;;;;;;0.88;0.80;;;13.30;94.30;;;;;;5074762;28;20047;-76
2021/08/30 01:06:03;;;;;;;1.23;1.00;;;13.30;94.40;;;;;;5074734;28;20016;-76
2021/08/30 01:08:37;;;;;;;3.33;0.85;;;13.30;94.20;;;;;;5074697;28;20023;-76
2021/08/30 01:11:09;;;;;;;1.20;0.90;;;13.30;94.10;;;;;;5074569;28;20081;-76
2021/08/30 01:14:02;;;;;;;1.50;0.90;;;13.30;94.00;;;;;;5074407;28;20031;-75
2021/08/30 01:16:30;;;;;;;1.98;0.77;;;13.30;94.00;;;;;;5073213;28;20040;-75
2021/08/30 01:19:00;;;;;;;0.90;0.70;;;13.40;94.00;;;;;;5074532;28;20385;-74
2021/08/30 01:21:37;;;;;;;0.85;0.80;;;13.30;93.70;;;;;;5074529;28;20028;-75
2021/08/30 01:24:07;;;;;;;3.92;0.80;;;13.30;94.00;;;;;;5074270;28;20431;-75
2021/08/30 01:26:40;;;;;;;1.35;1.23;;;13.30;94.10;;;;;;5074236;28;20047;-75
2021/08/30 01:29:12;;;;;;;1.95;1.00;;;13.30;94.10;;;;;;5074178;28;20089;-76
2021/08/30 01:31:44;;;;;;;0.88;0.77;;;13.30;94.00;;;;;;5074391;28;20037;-75
2021/08/30 01:34:09;;;;;;;2.00;0.98;;;13.30;94.10;;;;;;5074138;28;20387;-75
2021/08/30 01:36:36;;;;;;;0.80;0.80;;;13.30;94.10;;;;;;5073987;28;20031;-75
2021/08/30 01:39:02;;;;;;;0.73;0.73;;;13.30;94.20;;;;;;5074021;28;20017;-75
2021/08/30 01:41:28;;;;;;;0.70;0.70;;;13.30;94.00;;;;;;5072596;28;20426;-76
2021/08/30 01:43:56;;;;;;;1.05;0.80;;;13.30;94.40;;;;;;5073893;28;20107;-75
2021/08/30 01:46:22;;;;;;;5.75;0.70;;;13.20;94.00;;;;;;5073953;28;20448;-75
2021/08/30 01:48:51;;;;;;;0.60;0.60;;;13.10;94.90;;;;;;5073708;28;20021;-75
2021/08/30 01:51:19;;;;;;;0.80;0.80;;;13.10;94.90;;;;;;5073571;28;20056;-75
2021/08/30 01:53:47;;;;;;;0.70;0.70;;;13.10;94.90;;;;;;5073278;28;20024;-75
2021/08/30 01:56:13;;;;;;;0.70;0.60;;;13.10;94.80;;;;;;5072913;28;20107;-75
2021/08/30 02:01:24;;;;;;;0.70;0.70;;;13.20;94.80;;;;;;5073582;28;20031;-75
2021/08/30 02:03:50;;;;;;;0.70;0.70;;;13.30;94.70;;;;;;5073538;28;20267;-75
2021/08/30 02:06:15;;;;;;;1.50;0.70;;;13.20;94.70;;;;;;5073531;28;20380;-75
2021/08/30 02:08:41;;;;;;;0.65;0.65;;;13.20;94.60;;;;;;5072055;28;20426;-75
2021/08/30 02:11:10;;;;;;;0.57;0.57;;;13.20;94.50;;;;;;5073218;28;20048;-75
2021/08/30 02:13:35;;;;;;;2.13;0.90;;;13.20;94.40;;;;;;5073307;28;20024;-74
2021/08/30 02:16:02;;;;;;;2.60;0.95;;;13.20;94.50;;;;;;5073255;28;20025;-75
2021/08/30 02:18:33;;;;;;;2.67;1.00;;;13.20;94.50;;;;;;5073341;28;20043;-74
2021/08/30 02:21:27;;;;;;;1.08;0.98;;;13.20;94.30;;;;;;5073203;28;20105;-75
2021/08/30 02:24:18;;;;;;;4.90;0.80;;;13.20;93.90;;;;;;5069984;28;20041;-74
2021/08/30 02:27:07;;;;;;;1.65;0.70;;;13.30;94.10;;;;;;5073203;28;20103;-75
2021/08/30 02:29:58;;;;;;;0.93;0.82;;;13.30;94.00;;;;;;5072986;28;20107;-75
2021/08/30 02:32:26;;;;;;;0.60;0.60;;;13.30;94.60;;;;;;5070332;28;20438;-75
2021/08/30 02:34:55;;;;;;;0.90;0.90;;;13.30;93.80;;;;;;5073048;28;20028;-75
2021/08/30 02:37:24;;;;;;;1.10;0.70;;;13.30;93.60;;;;;;5072981;28;20028;-75
2021/08/30 02:39:51;;;;;;;1.25;0.70;;;13.40;93.80;;;;;;5073168;28;20052;-75
2021/08/30 02:42:18;;;;;;;2.17;0.68;;;13.30;93.60;;;;;;5072872;28;20354;-75
2021/08/30 02:44:45;;;;;;;0.60;0.60;;;13.40;93.20;;;;;;5072878;28;20017;-75
2021/08/30 02:47:13;;;;;;;1.58;0.52;;;13.40;93.20;;;;;;5072905;28;20020;-75
2021/08/30 02:49:42;;;;;;;0.80;0.50;;;13.40;93.40;;;;;;5072828;28;20035;-75
2021/08/30 02:52:10;;;;;;;1.40;0.80;;;13.40;93.30;;;;;;5072296;28;20055;-76
2021/08/30 02:54:37;;;;;;;1.42;0.98;;;13.40;93.30;;;;;;5072820;28;20017;-75
2021/08/30 02:57:05;;;;;;;1.15;0.75;;;13.30;93.20;;;;;;5072717;28;20055;-75
2021/08/30 02:59:31;;;;;;;1.05;0.70;;;13.30;93.20;;;;;;5072423;28;20046;-75
2021/08/30 03:01:59;;;;;;;1.13;0.85;;;13.40;93.50;;;;;;5072574;28;20029;-75
2021/08/30 03:04:26;;;;;;;0.85;0.80;;;13.40;93.30;;;;;;5072653;28;20030;-75
2021/08/30 03:06:54;;;;;;;0.82;0.70;;;13.40;93.10;;;;;;5073674;28;20083;-75
2021/08/30 03:09:19;;;;;;;2.03;0.98;;;13.30;93.40;;;;;;5076762;28;20465;-75
2021/08/30 03:11:48;;;;;;;1.27;0.73;;;13.30;93.30;;;;;;5076592;28;20043;-75
2021/08/30 03:14:17;;;;;;;1.05;0.85;;;13.20;94.40;;;;;;5076722;28;20477;-75
2021/08/30 03:16:44;;;;;;;1.10;0.60;;;13.20;93.60;;;;;;5076622;28;20032;-75
2021/08/30 03:19:13;;;;;;;0.70;0.70;;;13.30;93.70;;;;;;5076626;28;20170;-75
2021/08/30 03:21:40;;;;;;;1.50;0.60;;;13.20;93.50;;;;;;5076758;28;20060;-75
2021/08/30 03:24:07;;;;;;;1.25;0.98;;;13.30;93.60;;;;;;5076500;28;20153;-75
2021/08/30 03:26:34;;;;;;;0.85;0.85;;;13.20;93.50;;;;;;5076345;28;20040;-74
2021/08/30 03:29:00;;;;;;;1.40;1.10;;;13.20;93.50;;;;;;5076566;28;20055;-75
2021/08/30 03:31:27;;;;;;;3.70;1.15;;;13.10;93.80;;;;;;5075055;28;20365;-74
2021/08/30 03:33:54;;;;;;;2.70;1.70;;;13.20;93.60;;;;;;5076361;28;20021;-75
2021/08/30 03:36:20;;;;;;;2.92;1.88;;;13.10;93.50;;;;;;5076246;28;20028;-74
2021/08/30 03:38:46;;;;;;;4.60;2.42;;;13.10;93.50;;;;;;5076148;28;20361;-73
2021/08/30 03:41:14;;;;;;;6.70;2.80;;;13.10;93.40;;;;;;5076253;28;20038;-75
2021/08/30 03:43:41;;;;;;;5.25;2.70;;;13.20;93.60;;;;;;5076140;28;20024;-75
2021/08/30 03:46:08;;;;;;;4.47;2.28;;;13.20;93.90;;;;;;5076196;28;20037;-76
2021/08/30 03:48:34;;;;;;;4.60;2.83;;;13.20;93.90;;;;;;5075723;28;20384;-75
2021/08/30 03:51:01;;;;;;;7.47;4.35;;;13.20;93.80;;;;;;5075766;28;20479;-75
2021/08/30 03:53:28;;;;;;;8.70;3.83;;;13.20;93.40;;;;;;5075722;28;20016;-75
2021/08/30 03:55:55;;;;;;;5.53;3.33;;;13.20;93.40;;;;;;5076016;28;20377;-75
2021/08/30 03:58:21;;;;;;;4.97;3.22;;;13.20;93.10;;;;;;5075950;28;20072;-75
2021/08/30 04:00:47;;;;;;;5.20;3.15;;;13.20;93.10;;;;;;5075477;28;20033;-75
2021/08/30 04:03:15;;;;;;;4.90;2.63;;;13.20;93.10;;;;;;5075509;28;20024;-76
2021/08/30 04:05:42;;;;;;;3.30;2.45;;;13.20;93.30;;;;;;5075890;28;20095;-75
2021/08/30 04:08:09;;;;;;;4.25;2.60;;;13.20;93.40;;;;;;5079209;28;20032;-76
2021/08/30 04:10:36;;;;;;;4.07;2.42;;;13.20;93.70;;;;;;5081902;28;20025;-76
2021/08/30 04:13:03;;;;;;;5.47;2.45;;;13.10;93.80;;;;;;5078930;28;20048;-76
2021/08/30 04:15:31;;;;;;;3.55;2.55;;;13.10;94.30;;;;;;5080205;28;20021;-76
2021/08/30 04:17:57;;;;;;;4.47;2.85;;;13.10;94.50;;;;;;5076406;28;20024;-76
2021/08/30 04:20:23;;;;;;;3.63;2.55;;;13.10;94.70;;;;;;5074983;28;20031;-76
2021/08/30 04:22:48;;;;;;;3.47;2.72;;;13.10;94.70;;;;;;5075494;28;20032;-75
2021/08/30 04:25:14;;;;;;;3.10;2.67;;;13.10;94.60;;;;;;5075427;28;20469;-76
2021/08/30 04:27:40;;;;;;;3.97;2.60;;;13.20;94.30;;;;;;5075452;28;20354;-73
2021/08/30 04:30:06;;;;;;;5.25;2.20;;;13.20;94.20;;;;;;5075360;28;20361;-77
2021/08/30 04:32:35;;;;;;;3.67;2.55;;;13.20;94.20;;;;;;5075262;28;20125;-74
2021/08/30 04:35:02;;;;;;;8.25;2.63;;;13.20;94.00;;;;;;5076072;28;20023;-77
2021/08/30 04:37:27;;;;;;;3.78;2.60;;;13.20;94.10;;;;;;5075457;28;20028;-76
2021/08/30 04:39:53;;;;;;;5.38;3.28;;;13.30;94.10;;;;;;5075796;28;20028;-77
2021/08/30 04:42:18;;;;;;;3.78;2.97;;;13.20;94.20;;;;;;5075588;28;20134;-77
2021/08/30 04:44:44;;;;;;;3.90;3.22;;;13.20;94.60;;;;;;5075208;28;20535;-76
2021/08/30 04:47:10;;;;;;;5.22;3.47;;;13.10;95.30;;;;;;5075269;28;20028;-76
2021/08/30 04:49:37;;;;;;;3.67;2.97;;;13.10;95.30;;;;;;5075067;28;20025;-76
2021/08/30 04:52:03;;;;;;;3.65;2.75;;;13.10;96.10;;;;;;5074676;28;20832;-76
2021/08/30 04:54:29;;;;;;;2.50;2.25;;;13.10;95.60;;;;;;5074881;28;20032;-76
2021/08/30 04:56:54;;;;;;;3.08;2.50;;;13.10;95.30;;;;;;5074726;28;20032;-76
2021/08/30 04:59:20;;;;;;;2.60;2.28;;;13.10;95.40;;;;;;5074772;28;20044;-76
2021/08/30 05:01:46;;;;;;;4.28;2.92;;;13.10;95.40;;;;;;5074760;28;20177;-76
2021/08/30 05:04:11;;;;;;;7.05;3.00;;;13.10;96.00;;;;;;5074890;28;20032;-77
2021/08/30 05:06:37;;;;;;;3.90;2.92;;;13.10;95.90;;;;;;5074745;28;20029;-76
2021/08/30 05:09:02;;;;;;;3.65;3.10;;;13.10;96.00;;;;;;5074592;28;20107;-77
2021/08/30 05:11:28;;;;;;;6.53;5.05;;;13.00;96.10;;;;;;5074443;28;20075;-76
2021/08/30 05:13:53;;;;;;;4.35;3.47;;;13.00;96.20;;;;;;5074635;28;20024;-76
2021/08/30 05:16:19;;;;;;;5.07;3.55;;;13.10;96.40;;;;;;5074593;28;20024;-76
2021/08/30 05:18:45;;;;;;;4.82;3.95;;;13.00;96.30;;;;;;5074476;28;20020;-77
2021/08/30 05:21:10;;;;;;;5.53;3.65;;;13.10;96.40;;;;;;5074474;28;20471;-76
2021/08/30 05:23:36;;;;;;;5.15;3.63;;;13.00;96.30;;;;;;5074166;28;20036;-76
2021/08/30 05:26:02;;;;;;;8.63;4.70;;;13.00;96.30;;;;;;5074431;28;20057;-76
2021/08/30 05:28:28;;;;;;;6.68;5.03;;;13.00;96.40;;;;;;5074224;28;20432;-76
2021/08/30 05:30:53;;;;;;;8.55;4.30;;;13.00;96.70;;;;;;5073081;28;20178;-76
2021/08/30 05:33:19;;;;;;;4.60;3.80;;;12.90;96.80;;;;;;5074006;28;20093;-76
2021/08/30 05:35:45;;;;;;;4.88;4.18;;;13.00;96.80;;;;;;5074023;28;20025;-76
2021/08/30 05:38:11;;;;;;;4.47;3.92;;;13.00;96.70;;;;;;5073740;28;20373;-76
2021/08/30 05:40:36;;;;;;;6.20;3.90;;;13.00;96.70;;;;;;5074596;28;20020;-76
2021/08/30 05:43:02;;;;;;;6.82;4.00;;;12.90;96.70;;;;;;5075850;28;20035;-76
2021/08/30 05:45:28;;;;;;;6.25;4.47;;;12.90;96.90;;;;;;5073950;28;20103;-77
2021/08/30 05:47:54;;;;;;;7.70;4.72;;;13.00;97.00;;;;;;5073841;28;20067;-77
2021/08/30 05:50:20;;;;;;;4.88;4.00;;;13.00;96.90;;;;;;5073461;28;20040;-76
2021/08/30 05:52:45;;;;;;;5.18;4.13;;;13.00;97.10;;;;;;5073131;28;20098;-76
2021/08/30 05:55:11;;;;;;;5.13;4.05;;;13.00;97.00;;;;;;5073639;28;20020;-76
2021/08/30 05:57:37;;;;;;;7.78;4.18;;;13.00;96.70;;;;;;5073280;28;20028;-76
2021/08/30 06:00:05;;;;;;;4.53;3.42;;;13.00;96.70;;;;;;5073027;28;20035;-76
2021/08/30 06:02:30;;;;;;;5.35;3.97;;;13.10;96.70;;;;;;5073077;28;20021;-76
2021/08/30 06:04:56;;;;;;;6.70;3.83;;;13.00;96.30;;;;;;5073369;28;20029;-76
2021/08/30 06:07:21;;;;;;;6.75;4.65;;;13.00;96.50;;;;;;5073346;28;20028;-76
2021/08/30 06:09:47;;;;;;;7.45;4.15;;;13.10;96.60;;;;;;5072980;28;20025;-76
2021/08/30 06:12:12;;;;;;;5.68;4.15;;;13.10;96.50;;;;;;5073013;28;20040;-77
2021/08/30 06:14:38;;;;;;;5.53;3.97;;;13.10;96.70;;;;;;5073124;28;20070;-77
2021/08/30 06:17:03;;;;;;;6.70;4.18;;;13.20;96.40;;;;;;5072960;28;20048;-76
2021/08/30 06:19:29;;;;;;;5.68;3.90;;;13.10;96.30;;;;;;5072895;28;20017;-76
2021/08/30 06:21:54;;;;;;;5.97;4.30;;;13.20;96.30;;;;;;5073023;28;20028;-76
2021/08/30 06:24:20;;;;;;;5.28;4.55;;;13.10;96.50;;;;;;5072940;28;20033;-75
2021/08/30 06:26:46;;;;;;;6.32;5.13;;;13.20;96.30;;;;;;5071444;28;20029;-75
2021/08/30 06:29:12;;;;;;;8.02;5.78;;;13.20;96.30;;;;;;5072858;28;20024;-75
2021/08/30 06:31:38;;;;;;;5.88;3.55;;;13.20;96.20;;;;;;5072560;28;20037;-76
2021/08/30 06:34:03;;;;;;;6.68;4.38;;;13.20;96.10;;;;;;5072963;28;20024;-75
2021/08/30 06:36:29;;;;;;;4.97;4.00;;;13.20;96.10;;;;;;5072918;28;20035;-76
2021/08/30 06:38:54;;;;;;;5.72;3.90;;;13.10;96.40;;;;;;5073012;28;20027;-74
2021/08/30 06:41:22;;;;;;;5.20;3.80;;;13.10;96.50;;;;;;5071382;28;20040;-75
2021/08/30 06:43:48;;;;;;;6.07;4.10;;;13.00;97.10;;;;;;5072830;28;20495;-74
2021/08/30 06:46:13;;;;;;;5.57;3.80;;;13.00;97.20;;;;;;5073011;28;20060;-74
2021/08/30 06:48:39;;;;;;;5.97;4.68;;;12.90;97.30;;;;;;5072784;28;20040;-75
2021/08/30 06:51:05;;;;;;;6.38;4.30;;;12.90;97.40;;;;;;5072506;28;20044;-75
2021/08/30 06:53:31;;;;;;;6.75;4.32;;;12.90;97.60;;;;;;5071536;28;20131;-74
2021/08/30 06:55:57;;;;;;;5.90;4.45;;;12.90;97.60;;;;;;5071759;28;20459;-73
2021/08/30 06:58:22;;;;;;;4.60;4.10;;;13.00;97.60;;;;;;5072739;28;20028;-73
2021/08/30 07:00:48;;;;;;;5.22;4.05;;;13.00;97.50;;;;;;5072686;28;20020;-73
2021/08/30 07:03:14;;;;;;;7.22;4.63;;;13.00;97.40;;;;;;5072408;28;20032;-76
2021/08/30 07:05:39;;;;;;;8.80;4.72;;;12.90;97.70;;;;;;5072451;28;20024;-73
2021/08/30 07:08:05;;;;;;;6.35;3.92;;;13.10;97.80;;;;;;5072377;28;20028;-73
2021/08/30 07:10:31;;;;;;;4.72;3.92;;;13.20;97.10;;;;;;5072390;28;20416;-73
2021/08/30 07:12:56;;;;;;;5.00;3.40;;;13.20;96.60;;;;;;5072549;28;20078;-73
2021/08/30 07:15:22;;;;;;;3.67;3.00;;;13.30;96.80;;;;;;5072684;28;20024;-73
2021/08/30 07:17:48;;;;;;;10.05;4.05;;;13.40;96.30;;;;;;5072518;28;20639;-72
2021/08/30 07:20:14;;;;;;;7.40;3.78;;;13.50;96.00;;;;;;5072707;28;20218;-72
2021/08/30 07:22:39;;;;;;;9.25;2.83;;;13.70;96.40;;;;;;5072466;28;20052;-72
2021/08/30 07:25:05;;;;;;;3.28;2.55;;;13.80;94.60;;;;;;5072760;28;20025;-72
2021/08/30 07:27:31;;;;;;;2.67;2.20;;;14.00;94.10;;;;;;5072254;28;20052;-72
2021/08/30 07:29:57;;;;;;;2.10;1.90;;;14.10;93.50;;;;;;5072499;28;20066;-72
2021/08/30 07:32:22;;;;;;;2.08;1.90;;;14.30;92.50;;;;;;5072305;28;20033;-72
2021/08/30 07:34:48;;;;;;;2.47;2.20;;;14.40;91.90;;;;;;5072319;28;20047;-72
2021/08/30 07:37:14;;;;;;;4.13;2.40;;;14.20;91.60;;;;;;5072383;28;20086;-73
2021/08/30 07:39:39;;;;;;;3.70;2.25;;;14.20;92.30;;;;;;5072074;28;20016;-72
2021/08/30 07:42:05;;;;;;;2.80;2.35;;;13.90;93.70;;;;;;5070710;28;20070;-72
2021/08/30 07:44:31;;;;;;;2.95;2.40;;;13.90;94.10;;;;;;5072379;28;20028;-74
2021/08/30 07:46:56;;;;;;;3.50;2.70;;;14.00;93.20;;;;;;5072051;28;20028;-74
2021/08/30 07:49:22;;;;;;;3.38;2.60;;;13.90;93.50;;;;;;5072486;28;20497;-75
2021/08/30 07:51:47;;;;;;;6.22;3.20;;;13.80;94.10;;;;;;5071940;28;20059;-74
2021/08/30 07:54:13;;;;;;;8.32;3.30;;;13.80;94.40;;;;;;5072451;28;20021;-75
2021/08/30 07:56:40;;;;;;;6.43;2.90;;;13.70;94.40;;;;;;5075705;28;20028;-75
2021/08/30 07:59:08;;;;;;;9.18;2.97;;;13.70;94.60;;;;;;5075852;28;20044;-73
2021/08/30 08:01:35;;;;;;;4.03;2.70;;;13.60;95.00;;;;;;5075568;28;20082;-73
2021/08/30 08:04:01;;;;;;;5.03;3.25;;;13.60;95.30;;;;;;5075727;28;20082;-73
2021/08/30 08:06:27;;;;;;;4.15;3.28;;;13.60;95.60;;;;;;5074356;28;20384;-73
2021/08/30 08:08:52;;;;;;;3.63;3.10;;;13.70;95.50;;;;;;5075607;28;20020;-73
2021/08/30 08:11:18;;;;;;;4.78;3.45;;;13.80;95.10;;;;;;5075160;28;20039;-75
2021/08/30 08:13:44;;;;;;;4.25;3.40;;;13.90;95.20;;;;;;5075202;28;20101;-73
2021/08/30 08:16:09;;;;;;;5.13;4.07;;;14.10;94.50;;;;;;5075314;28;20492;-73
2021/08/30 08:18:35;;;;;;;5.72;3.90;;;14.10;94.50;;;;;;5075168;28;20048;-73
2021/08/30 08:21:04;;;;;;;8.73;5.20;;;14.20;94.30;;;;;;5075317;28;20031;-74
2021/08/30 08:23:30;;;;;;;10.82;6.32;;;14.30;94.10;;;;;;5075250;28;20025;-75
2021/08/30 08:25:55;;;;;;;7.05;4.50;;;14.30;94.10;;;;;;5076184;28;20020;-74
2021/08/30 08:28:21;;;;;;;10.85;5.82;;;14.30;93.60;;;;;;5076869;28;20380;-75
2021/08/30 08:30:47;;;;;;;17.67;8.68;;;14.30;93.50;;;;;;5075208;28;20059;-74
2021/08/30 08:33:12;;;;;;;21.23;9.95;;;14.30;93.90;;;;;;5074901;28;20068;-74
2021/08/30 08:35:40;;;;;;;10.82;6.00;;;14.50;93.20;;;;;;5073968;28;20045;-74
2021/08/30 08:38:08;;;;;;;6.75;5.05;;;14.40;93.00;;;;;;5075120;28;20036;-74
2021/08/30 08:40:34;;;;;;;5.18;4.57;;;14.40;93.30;;;;;;5075013;28;20024;-75
2021/08/30 08:42:59;;;;;;;6.35;5.07;;;14.30;93.50;;;;;;5075401;28;20376;-74
2021/08/30 08:45:25;;;;;;;5.47;4.43;;;14.40;93.40;;;;;;5075312;28;20430;-74
2021/08/30 08:47:50;;;;;;;9.55;5.28;;;14.50;92.90;;;;;;5073526;28;20032;-75
2021/08/30 08:50:20;;;;;;;7.50;5.22;;;14.50;93.00;;;;;;5074809;28;20085;-76
2021/08/30 08:52:45;;;;;;;7.63;5.18;;;14.50;92.50;;;;;;5074576;28;20408;-74
2021/08/30 08:55:13;;;;;;;6.35;5.50;;;14.60;92.50;;;;;;5074712;28;20020;-74
2021/08/30 08:57:39;;;;;;;7.28;6.15;;;14.60;92.10;;;;;;5074682;28;20035;-75
2021/08/30 09:00:09;;;;;;;10.60;6.45;;;14.60;93.00;;;;;;5074742;28;20016;-74
2021/08/30 09:02:35;;;;;;;5.68;5.03;;;14.80;92.70;;;;;;5074848;28;20020;-74
2021/08/30 09:05:03;;;;;;;10.00;6.10;;;15.00;92.20;;;;;;5074239;28;20029;-74
2021/08/30 09:07:41;;;;;;;7.03;5.18;;;15.10;91.70;;;;;;5074530;28;20365;-75
2021/08/30 09:10:13;;;;;;;9.52;5.97;;;15.10;91.20;;;;;;5074638;28;20051;-74
2021/08/30 09:12:41;;;;;;;6.55;5.40;;;15.20;90.40;;;;;;5074177;28;20060;-74
2021/08/30 09:15:12;;;;;;;5.80;4.60;;;15.20;90.70;;;;;;5073890;28;20070;-74
2021/08/30 09:17:55;;;;;;;5.55;4.88;;;15.10;90.30;;;;;;5074161;28;20029;-74
2021/08/30 09:20:23;;;;;;;6.25;4.70;;;15.10;90.40;;;;;;5074190;28;20020;-74
2021/08/30 09:22:49;;;;;;;5.85;5.03;;;15.00;91.00;;;;;;5074295;28;20055;-74
2021/08/30 09:25:16;;;;;;;7.03;5.18;;;15.00;92.20;;;;;;5074217;28;20047;-74
2021/08/30 09:27:47;;;;;;;6.13;5.20;;;14.90;91.80;;;;;;5074052;28;20025;-74
2021/08/30 09:30:15;;;;;;;8.18;5.05;;;14.90;92.20;;;;;;5074155;28;20043;-74
2021/08/30 09:32:45;;;;;;;8.27;5.05;;;14.90;93.00;;;;;;5073833;28;20081;-74
2021/08/30 09:35:11;;;;;;;6.97;5.05;;;14.90;92.90;;;;;;5074005;28;20096;-74
2021/08/30 09:37:38;;;;;;;6.28;5.53;;;15.00;92.80;;;;;;5073584;28;20060;-75
2021/08/30 09:40:10;;;;;;;6.82;5.38;;;15.10;92.50;;;;;;5072018;28;20111;-74
2021/08/30 09:42:40;;;;;;;7.72;6.40;;;15.10;92.90;;;;;;5073711;28;20039;-74
2021/08/30 09:45:09;;;;;;;9.15;7.50;;;15.20;91.80;;;;;;5073497;28;20480;-74
2021/08/30 09:47:34;;;;;;;9.50;6.80;;;15.20;91.10;;;;;;5073590;28;20017;-74
2021/08/30 09:50:00;;;;;;;8.73;6.82;;;15.10;91.90;;;;;;5073309;28;20377;-74
2021/08/30 09:52:25;;;;;;;9.27;6.40;;;15.20;92.90;;;;;;5073434;28;20046;-74
2021/08/30 09:54:52;;;;;;;8.60;6.57;;;15.20;92.60;;;;;;5073434;28;20021;-75
2021/08/30 09:57:18;;;;;;;9.35;6.32;;;15.20;92.30;;;;;;5073663;28;20480;-75
2021/08/30 09:59:45;;;;;;;9.73;6.63;;;15.30;92.10;;;;;;5073183;28;20108;-75
2021/08/30 10:02:14;;;;;;;9.77;6.22;;;15.30;92.10;;;;;;5073441;28;20020;-75
2021/08/30 10:04:41;;;;;;;7.68;6.55;;;15.30;92.30;;;;;;5073110;28;20052;-75
2021/08/30 10:07:10;;;;;;;7.28;6.22;;;15.10;92.10;;;;;;5073576;28;20020;-75
2021/08/30 10:09:37;;;;;;;7.78;5.70;;;15.20;92.20;;;;;;5073986;28;20032;-76
2021/08/30 10:12:03;;;;;;;8.93;6.53;;;15.20;92.10;;;;;;5076277;28;20116;-76
2021/08/30 10:14:30;;;;;;;7.72;5.25;;;15.40;92.10;;;;;;5072810;28;20023;-76
2021/08/30 10:17:04;;;;;;;7.78;5.28;;;15.40;91.70;;;;;;5072343;28;20046;-75
2021/08/30 10:19:32;;;;;;;7.05;4.95;;;15.50;91.00;;;;;;5073007;28;20024;-75
2021/08/30 10:22:01;;;;;;;6.85;4.90;;;15.60;89.90;;;;;;5072922;28;20029;-75
2021/08/30 10:24:37;;;;;;;6.90;5.30;;;15.80;90.00;;;;;;5072873;28;20029;-75
2021/08/30 10:27:03;;;;;;;5.50;4.90;;;16.00;90.20;;;;;;5073110;28;20032;-75
2021/08/30 10:29:34;;;;;;;5.25;4.53;;;16.10;90.40;;;;;;5071501;28;20074;-76
2021/08/30 10:32:00;;;;;;;5.75;4.78;;;16.20;88.50;;;;;;5072838;28;20067;-75
2021/08/30 10:34:33;;;;;;;5.85;4.75;;;16.20;88.40;;;;;;5072646;28;20047;-75
2021/08/30 10:37:01;;;;;;;6.53;4.20;;;16.40;86.80;;;;;;5073106;28;20025;-76
2021/08/30 10:39:56;;;;;;;4.93;4.20;;;16.30;86.70;;;;;;5072947;28;20400;-76
2021/08/30 10:42:22;;;;;;;6.25;4.60;;;16.30;87.00;;;;;;5071053;28;20079;-75
2021/08/30 10:44:53;;;;;;;8.57;5.82;;;16.30;88.70;;;;;;5079258;28;20025;-75
2021/08/30 10:47:21;;;;;;;6.20;5.47;;;16.30;87.80;;;;;;5077652;28;20036;-75
2021/08/30 10:49:50;;;;;;;5.88;5.25;;;16.20;87.50;;;;;;5074997;28;20376;-75
2021/08/30 10:52:16;;;;;;;5.97;5.22;;;16.10;88.00;;;;;;5072806;28;20060;-75
2021/08/30 10:54:56;;;;;;;6.97;5.60;;;15.90;88.10;;;;;;5072624;28;20023;-76
2021/08/30 10:57:38;;;;;;;7.00;5.78;;;15.70;89.40;;;;;;5072514;28;20427;-75
2021/08/30 11:00:07;;;;;;;7.82;6.43;;;15.60;89.90;;;;;;5072791;28;20384;-75
2021/08/30 11:02:39;;;;;;;7.07;6.18;;;15.50;90.20;;;;;;5072956;28;20035;-75
2021/08/30 11:05:08;;;;;;;8.18;6.13;;;15.50;90.60;;;;;;5072859;28;20431;-75
2021/08/30 11:07:35;;;;;;;7.47;6.13;;;15.60;90.80;;;;;;5072629;28;20021;-75
2021/08/30 11:10:01;;;;;;;6.25;4.90;;;15.70;91.00;;;;;;5072660;28;20017;-74
2021/08/30 11:12:27;;;;;;;6.03;4.65;;;15.90;91.20;;;;;;5072527;28;20461;-77
2021/08/30 11:14:57;;;;;;;5.47;4.65;;;15.90;90.20;;;;;;5072346;28;20033;-76
2021/08/30 11:17:27;;;;;;;7.13;4.72;;;15.60;89.50;;;;;;5072680;28;20492;-75
2021/08/30 11:19:54;;;;;;;6.38;5.53;;;15.50;90.00;;;;;;5074504;28;20021;-75
2021/08/30 11:22:20;;;;;;;6.47;5.82;;;15.40;90.90;;;;;;5073263;28;20026;-75
2021/08/30 11:24:46;;;;;;;7.18;6.07;;;15.60;91.90;;;;;;5072383;28;20099;-74
2021/08/30 11:27:19;;;;;;;6.57;5.60;;;15.70;92.00;;;;;;5072541;28;20021;-77
2021/08/30 11:29:50;;;;;;;8.98;6.47;;;15.80;92.20;;;;;;5076418;28;20029;-75
2021/08/30 11:32:17;;;;;;;9.40;6.78;;;15.90;89.30;;;;;;5082428;28;20052;-75
2021/08/30 11:34:44;;;;;;;10.57;7.63;;;15.90;89.30;;;;;;5097466;28;20039;-73
2021/08/30 11:37:13;;;;;;;10.90;7.82;;;15.90;89.60;;;;;;5084321;28;20032;-74
2021/08/30 11:39:41;;;;;;;11.40;7.50;;;15.90;88.60;;;;;;5077937;28;20087;-76
2021/08/30 11:42:17;;;;;;;12.65;8.25;;;16.00;89.30;;;;;;5077456;28;20021;-77
2021/08/30 11:44:44;;;;;;;10.25;8.57;;;16.10;89.10;;;;;;5077253;28;20024;-75
2021/08/30 11:47:13;;;;;;;12.02;9.00;;;16.20;88.80;;;;;;5076173;28;20051;-75
2021/08/30 11:49:50;;;;;;;12.23;8.05;;;16.20;88.40;;;;;;5076034;28;20036;-75
2021/08/30 11:52:19;;;;;;;12.40;9.13;;;16.40;86.50;;;;;;5075821;28;20043;-75
2021/08/30 11:55:12;;;;;;;12.35;9.48;;;16.40;87.50;;;;;;5075784;28;20024;-76
2021/08/30 11:57:59;;;;;;;14.98;10.23;;;16.40;86.30;;;;;;5074680;28;20553;-75
2021/08/30 12:00:24;;;;;;;13.70;9.95;;;16.60;86.90;;;;;;5075731;28;20112;-75
2021/08/30 12:03:11;;;;;;;12.85;9.68;;;17.20;85.70;;;;;;5075734;28;20057;-75
2021/08/30 12:05:37;;;;;;;14.43;8.60;;;17.50;82.30;;;;;;5075697;28;20024;-76
2021/08/30 12:08:02;;;;;;;10.27;8.23;;;17.70;81.60;;;;;;5075857;28;20032;-75
2021/08/30 12:10:30;;;;;;;11.25;8.20;;;17.70;80.90;;;;;;5075588;28;20051;-76
2021/08/30 12:15:33;;;;;;;10.50;7.30;;;17.50;81.80;;;;;;5075551;28;20024;-73
2021/08/30 12:18:01;;;;;;;9.43;7.65;;;17.30;81.90;;;;;;5074481;28;20112;-74
2021/08/30 12:20:31;;;;;;;9.27;7.68;;;17.20;82.30;;;;;;5075658;28;20017;-75
2021/08/30 12:23:02;;;;;;;12.63;8.98;;;16.90;83.70;;;;;;5075408;28;20057;-75
2021/08/30 12:25:32;;;;;;;10.63;7.97;;;16.80;85.00;;;;;;5075367;28;20016;-75
2021/08/30 12:27:59;;;;;;;14.38;9.32;;;16.70;86.10;;;;;;5076080;28;20024;-74
2021/08/30 12:30:32;;;;;;;12.55;9.45;;;16.60;86.40;;;;;;5075237;28;20088;-75
2021/08/30 12:33:00;;;;;;;12.77;8.98;;;16.60;86.10;;;;;;5075296;28;20029;-75
2021/08/30 12:35:29;;;;;;;12.63;8.90;;;16.70;86.40;;;;;;5075234;28;20017;-75
2021/08/30 12:37:57;;;;;;;12.90;8.93;;;17.00;85.60;;;;;;5075168;28;20020;-79
2021/08/30 12:40:23;;;;;;;10.32;8.55;;;17.50;83.70;;;;;;5073155;28;20058;-78
2021/08/30 12:42:50;;;;;;;10.20;8.50;;;17.80;82.20;;;;;;5074977;28;20488;-77
2021/08/30 12:45:16;;;;;;;10.38;5.18;;;17.60;81.20;;;;;;5074878;28;20092;-77
2021/08/30 12:47:42;;;;;;;8.02;4.97;;;17.00;83.40;;;;;;5074699;28;20027;-77
2021/08/30 12:50:08;;;;;;;10.65;6.40;;;16.50;83.90;;;;;;5074641;28;20482;-76
2021/08/30 12:52:35;;;;;;;8.55;6.88;;;16.00;86.20;;;;;;5074793;28;20037;-74